DAN weather

Danville Regional Airport
Danville, Virginia, United States

Public forecast

Using degrees Fahrenheit for public forecast. Weather courtesy of forecast.io.

METAR (pilot weather report)

Retrieved 2019/07/21 19:53 UTC (37 minutes ago):

KDAN 211953Z AUTO VRB05KT 10SM CLR 34/22 A2995 RMK AO2 SLP129 T03440217

TAF (pilot weather forecast)

Retrieved 2019/07/21 18:22 UTC (2 hours ago):

TAF KDAN 211720Z 2118/2218 27010KT P6SM SCT060 FM212000 24007KT P6SM SCT060 FM220000 23004KT P6SM SKC FM221700 24010G18KT P6SM SCT070